Time;durP1;ratioP1;P1;durP2;ratioP2;P2;SDS_P1;SDS_P2;PMS_P1;PMS_P2;Temp;Humidity;BMP_temperature;BMP_pressure;BME280_temperature;BME280_humidity;BME280_pressure;Samples;Min_cycle;Max_cycle;Signal;HPM_P1;HPM_P2
2022/01/24 20:28:42;;;;;;;83.10;44.90;;;;;;;0.27;70.48;101930.28;103344;1307;545231;-81
2022/01/24 20:31:09;;;;;;;61.10;38.60;;;;;;;0.24;70.69;101921.44;105293;1284;22575;-80
2022/01/24 20:33:37;;;;;;;62.10;38.30;;;;;;;0.28;70.87;101924.25;107126;1283;23192;-82
2022/01/24 20:36:05;;;;;;;69.40;41.40;;;;;;;0.30;70.93;101929.21;106150;1283;22638;-82
2022/01/24 20:38:32;;;;;;;68.50;36.20;;;;;;;0.35;70.87;101929.02;105325;1283;22728;-79
2022/01/24 20:41:00;;;;;;;60.40;34.50;;;;;;;0.43;70.87;101917.81;105518;1283;24014;-79
2022/01/24 20:43:26;;;;;;;67.20;37.80;;;;;;;0.46;70.67;101918.17;105359;1281;194563;-79
2022/01/24 20:45:57;;;;;;;65.20;39.70;;;;;;;0.46;70.76;101917.30;105618;1283;23249;-79
2022/01/24 20:48:25;;;;;;;69.60;40.00;;;;;;;0.41;70.76;101918.44;105585;1281;22573;-77
2022/01/24 20:50:54;;;;;;;76.90;43.30;;;;;;;0.45;70.96;101916.92;105606;1283;23168;-78
2022/01/24 20:53:21;;;;;;;73.30;38.30;;;;;;;0.49;71.13;101918.00;105726;1283;25389;-81
2022/01/24 20:55:49;;;;;;;71.80;38.10;;;;;;;0.45;71.33;101916.89;105775;1281;24234;-82
2022/01/24 20:58:16;;;;;;;66.50;38.90;;;;;;;0.40;71.75;101911.75;106695;1284;22690;-79
2022/01/24 21:00:43;;;;;;;71.40;39.40;;;;;;;0.36;72.02;101908.62;106423;1271;25444;-78
2022/01/24 21:03:12;;;;;;;64.10;38.30;;;;;;;0.39;72.29;101907.02;105990;1276;24376;-76
2022/01/24 21:05:39;;;;;;;63.40;37.80;;;;;;;0.42;72.43;101909.14;106106;1276;24256;-78
2022/01/24 21:08:08;;;;;;;86.30;46.00;;;;;;;0.45;72.54;101908.61;105899;1279;22568;-77
2022/01/24 21:10:35;;;;;;;78.30;42.90;;;;;;;0.44;72.75;101904.05;105873;1276;24343;-74
2022/01/24 21:13:12;;;;;;;75.20;42.60;;;;;;;0.44;72.98;101898.64;106105;1277;25318;-78
2022/01/24 21:15:40;;;;;;;75.90;43.60;;;;;;;0.45;73.41;101895.43;105638;1281;23969;-75
2022/01/24 21:18:09;;;;;;;78.20;44.00;;;;;;;0.36;74.01;101895.92;105964;1280;22703;-79
2022/01/24 21:20:36;;;;;;;79.50;45.00;;;;;;;0.29;74.19;101900.38;105509;1283;24265;-78
2022/01/24 21:23:04;;;;;;;75.70;41.80;;;;;;;0.22;74.52;101895.99;105680;1280;22557;-78
2022/01/24 21:25:31;;;;;;;70.60;40.50;;;;;;;0.18;74.91;101890.25;105806;1280;23207;-78
2022/01/24 21:27:58;;;;;;;78.70;44.20;;;;;;;0.19;75.12;101886.32;105176;1285;22563;-85
2022/01/24 21:30:26;;;;;;;61.30;36.40;;;;;;;0.17;75.18;101884.66;105005;1284;22958;-79
2022/01/24 21:32:55;;;;;;;87.30;45.70;;;;;;;0.12;75.30;101878.63;105245;1284;25610;-75
2022/01/24 21:35:33;;;;;;;89.90;48.00;;;;;;;0.12;75.70;101873.61;105462;1281;22557;-79
2022/01/24 21:38:03;;;;;;;84.90;43.40;;;;;;;0.15;75.75;101869.98;105654;1279;25652;-84
2022/01/24 21:40:35;;;;;;;74.10;41.50;;;;;;;0.20;75.89;101865.05;105939;1277;24474;-83
2022/01/24 21:43:06;;;;;;;81.00;43.40;;;;;;;0.19;75.82;101862.03;106154;1276;23263;-84
2022/01/24 21:45:35;;;;;;;72.50;40.00;;;;;;;0.13;76.18;101859.09;105412;1274;23980;-81
2022/01/24 21:48:02;;;;;;;80.10;47.80;;;;;;;0.12;76.38;101854.05;105786;1277;23744;-80
2022/01/24 21:50:30;;;;;;;77.60;43.90;;;;;;;0.10;76.44;101854.27;105410;1284;22587;-82
2022/01/24 21:52:58;;;;;;;91.80;48.60;;;;;;;0.10;76.66;101848.23;105558;1281;22662;-84
2022/01/24 21:55:34;;;;;;;86.20;48.00;;;;;;;0.13;76.82;101847.33;105534;1281;25376;-83
2022/01/24 21:58:05;;;;;;;76.50;45.70;;;;;;;0.17;76.73;101842.02;105596;1281;25334;-85
2022/01/24 22:00:33;;;;;;;92.50;47.40;;;;;;;0.18;76.98;101840.38;104997;1285;23972;-84
2022/01/24 22:03:03;;;;;;;78.80;45.90;;;;;;;0.21;76.79;101838.08;104708;1286;24287;-86
2022/01/24 22:05:31;;;;;;;80.40;47.50;;;;;;;0.19;76.92;101833.48;105108;1287;24803;-82
2022/01/24 22:10:28;;;;;;;82.10;42.40;;;;;;;0.22;76.98;101831.73;105472;1281;22840;-82
2022/01/24 22:12:56;;;;;;;77.50;44.30;;;;;;;0.25;76.90;101825.66;105575;1281;24259;-85
2022/01/24 22:15:26;;;;;;;82.10;46.70;;;;;;;0.31;77.09;101825.28;105339;1281;22564;-84
2022/01/24 22:17:55;;;;;;;76.10;43.90;;;;;;;0.31;77.09;101820.27;105455;1284;22842;-83
2022/01/24 22:20:25;;;;;;;81.70;46.70;;;;;;;0.28;76.87;101817.48;104883;1286;22554;-82
2022/01/24 22:25:46;;;;;;;59.40;32.20;;;;;;;0.20;77.49;101819.98;105715;1277;22576;-83
2022/01/24 22:28:14;;;;;;;89.70;44.70;;;;;;;0.13;77.70;101810.23;106001;1277;25382;-80
2022/01/24 22:30:42;;;;;;;70.30;40.40;;;;;;;0.09;78.16;101815.77;105901;1278;25509;-79
2022/01/24 22:33:10;;;;;;;87.80;47.60;;;;;;;0.06;78.18;101811.09;105277;1281;22548;-80
2022/01/24 22:35:38;;;;;;;84.40;47.10;;;;;;;0.10;78.41;101807.85;105469;1282;24219;-82
2022/01/24 22:38:05;;;;;;;71.70;40.80;;;;;;;0.13;78.55;101804.55;105752;1277;23014;-85
2022/01/24 22:40:34;;;;;;;82.90;45.80;;;;;;;0.16;78.41;101804.34;105910;1277;22681;-77
2022/01/24 22:43:02;;;;;;;79.00;46.80;;;;;;;0.18;78.69;101802.91;106187;1277;25416;-79
2022/01/24 22:45:31;;;;;;;78.90;45.70;;;;;;;0.23;78.51;101801.30;106278;1277;22771;-81
2022/01/24 22:47:58;;;;;;;80.80;43.40;;;;;;;0.23;78.52;101800.30;105875;1281;25638;-82
2022/01/24 22:50:26;;;;;;;71.10;43.10;;;;;;;0.24;78.64;101792.67;105701;1275;22983;-81
2022/01/24 22:52:53;;;;;;;77.30;44.40;;;;;;;0.25;78.91;101793.61;105617;1281;25425;-82
2022/01/24 22:55:21;;;;;;;69.40;40.40;;;;;;;0.28;78.96;101792.05;105548;1284;24170;-83
2022/01/24 22:57:49;;;;;;;80.80;46.10;;;;;;;0.21;79.12;101792.20;105762;1281;22550;-86
2022/01/24 23:00:39;;;;;;;83.50;46.20;;;;;;;0.27;79.22;101790.59;105626;1281;24039;-84
2022/01/24 23:03:07;;;;;;;74.00;41.50;;;;;;;0.38;79.28;101782.67;105160;1287;24238;-84
2022/01/24 23:05:38;;;;;;;80.40;45.50;;;;;;;0.43;79.08;101780.55;105074;1285;24000;-86
2022/01/24 23:08:08;;;;;;;76.90;42.20;;;;;;;0.47;78.75;101784.05;105083;1285;24274;-84
2022/01/24 23:10:38;;;;;;;73.00;41.30;;;;;;;0.48;78.83;101780.48;105645;1281;25212;-83
2022/01/24 23:13:19;;;;;;;85.50;45.60;;;;;;;0.50;78.70;101778.86;105988;1281;22596;-81
2022/01/24 23:21:26;;;;;;;70.30;39.80;;;;;;;0.38;79.10;101768.30;105909;1277;22832;-78
2022/01/24 23:23:53;;;;;;;76.50;43.40;;;;;;;0.41;79.52;101764.69;106093;1278;22885;-80
2022/01/24 23:26:24;;;;;;;71.20;41.90;;;;;;;0.47;79.48;101762.73;106452;1277;22563;-80
2022/01/24 23:28:56;;;;;;;70.30;42.90;;;;;;;0.47;79.19;101757.05;106140;1278;25554;-78
2022/01/24 23:31:24;;;;;;;77.30;41.60;;;;;;;0.49;79.33;101751.23;106312;1278;22686;-77
2022/01/24 23:39:07;;;;;;;68.90;40.20;;;;;;;0.54;79.15;101739.53;106427;1271;25339;-79
2022/01/24 23:41:51;;;;;;;69.40;41.50;;;;;;;0.51;79.18;101743.02;106277;1275;24121;-79
2022/01/24 23:44:21;;;;;;;63.60;36.80;;;;;;;0.51;79.29;101738.29;106152;1283;22603;-81
2022/01/24 23:46:52;;;;;;;55.90;35.20;;;;;;;0.53;79.47;101736.71;105799;1281;24121;-79
2022/01/24 23:49:23;;;;;;;56.20;34.60;;;;;;;0.54;79.44;101725.81;105085;1287;22561;-80
2022/01/24 23:51:51;;;;;;;66.60;40.50;;;;;;;0.52;79.40;101725.90;105216;1288;22778;-79
2022/01/24 23:54:18;;;;;;;70.30;41.10;;;;;;;0.53;79.43;101726.48;105459;1287;25290;-79
2022/01/24 23:56:58;;;;;;;52.00;31.90;;;;;;;0.49;79.56;101718.48;104675;1290;25562;-79
